createdAt,value
2023-12-23T00:00:27.566Z,0.80
2023-12-23T00:02:54.968Z,0.33
2023-12-23T00:05:23.849Z,0.30
2023-12-23T00:07:52.524Z,0.50
2023-12-23T00:10:21.311Z,1.03
2023-12-23T00:12:49.808Z,0.63
2023-12-23T00:15:19.689Z,0.40
2023-12-23T00:17:50.667Z,0.40
2023-12-23T00:20:19.759Z,0.53
2023-12-23T00:22:48.804Z,0.40
2023-12-23T00:25:17.262Z,0.73
2023-12-23T00:27:45.983Z,0.50
2023-12-23T00:30:17.107Z,0.40
2023-12-23T00:32:47.720Z,0.60
2023-12-23T00:35:16.448Z,0.57
2023-12-23T00:37:45.113Z,0.47
2023-12-23T00:40:14.189Z,0.50
2023-12-23T00:42:42.730Z,0.40
2023-12-23T00:45:11.213Z,0.30
2023-12-23T00:47:39.717Z,0.50
2023-12-23T00:50:11.596Z,0.50
2023-12-23T00:52:40.122Z,1.07
2023-12-23T00:55:09.791Z,0.57
2023-12-23T00:57:38.308Z,0.60
2023-12-23T01:00:09.077Z,0.73
2023-12-23T01:02:37.504Z,0.57
2023-12-23T01:05:07.142Z,0.50
2023-12-23T01:07:36.981Z,0.40
2023-12-23T01:10:06.753Z,0.70
2023-12-23T01:12:35.236Z,0.40
2023-12-23T01:15:04.063Z,0.67
2023-12-23T01:17:32.568Z,0.40
2023-12-23T01:20:02.057Z,0.60
2023-12-23T01:22:30.560Z,0.43
2023-12-23T01:25:00.408Z,0.50
2023-12-23T01:27:28.903Z,0.50
2023-12-23T01:29:57.398Z,0.60
2023-12-23T01:32:25.817Z,0.60
2023-12-23T01:34:54.208Z,0.40
2023-12-23T01:37:24.798Z,0.40
2023-12-23T01:39:53.192Z,0.50
2023-12-23T01:42:23.179Z,0.60
2023-12-23T01:44:51.669Z,0.50
2023-12-23T01:47:20.344Z,0.50
2023-12-23T01:49:49.953Z,0.47
2023-12-23T01:52:18.754Z,0.50
2023-12-23T01:54:48.018Z,0.40
2023-12-23T01:57:16.534Z,0.70
2023-12-23T01:59:46.568Z,0.50
2023-12-23T02:02:16.171Z,0.60
2023-12-23T02:04:44.901Z,0.57
2023-12-23T02:07:12.431Z,0.40
2023-12-23T02:09:41.713Z,0.70
2023-12-23T02:12:22.115Z,0.50
2023-12-23T02:15:04.311Z,1.00
2023-12-23T02:17:33.651Z,0.60
2023-12-23T02:20:02.351Z,0.83
2023-12-23T02:22:32.460Z,0.47
2023-12-23T02:25:01.140Z,0.53
2023-12-23T02:27:35.547Z,0.53
2023-12-23T02:30:04.545Z,0.50
2023-12-23T02:32:33.821Z,1.10
2023-12-23T02:35:02.580Z,0.60
2023-12-23T02:37:32.391Z,0.60
2023-12-23T02:40:01.091Z,0.67
2023-12-23T02:42:29.625Z,0.97
2023-12-23T02:44:58.011Z,0.93
2023-12-23T02:47:26.509Z,0.83
2023-12-23T02:49:54.899Z,0.87
2023-12-23T02:52:26.349Z,0.90
2023-12-23T02:54:56.148Z,0.90
2023-12-23T02:57:24.568Z,0.60
2023-12-23T02:59:52.953Z,1.10
2023-12-23T03:02:23.446Z,1.33
2023-12-23T03:04:51.890Z,1.00
2023-12-23T03:07:20.297Z,0.80
2023-12-23T03:09:48.731Z,0.60
2023-12-23T03:12:18.493Z,0.67
2023-12-23T03:14:47.784Z,0.70
2023-12-23T03:17:16.756Z,0.60
2023-12-23T03:19:45.393Z,0.73
2023-12-23T03:22:13.749Z,0.60
2023-12-23T03:24:42.529Z,0.60
2023-12-23T03:27:11.039Z,0.70
2023-12-23T03:29:40.826Z,0.67
2023-12-23T03:32:09.352Z,0.57
2023-12-23T03:34:38.235Z,0.53
2023-12-23T03:37:06.683Z,0.80
2023-12-23T03:39:35.108Z,0.67
2023-12-23T03:42:04.697Z,0.63
2023-12-23T03:44:33.150Z,0.53
2023-12-23T03:47:02.897Z,0.57
2023-12-23T03:49:31.394Z,0.50
2023-12-23T03:51:59.807Z,0.50
2023-12-23T03:54:28.253Z,1.00
2023-12-23T03:56:56.729Z,0.40
2023-12-23T03:59:25.121Z,0.60
2023-12-23T04:01:53.549Z,0.60
2023-12-23T04:04:23.447Z,0.83
2023-12-23T04:06:51.977Z,0.50
2023-12-23T04:09:20.467Z,0.53
2023-12-23T04:11:48.858Z,0.60
2023-12-23T04:14:17.491Z,0.93
2023-12-23T04:16:46.041Z,0.83
2023-12-23T04:19:14.754Z,0.80
2023-12-23T04:21:44.581Z,0.87
2023-12-23T04:24:13.212Z,0.70
2023-12-23T04:26:41.673Z,1.17
2023-12-23T04:29:10.178Z,0.80
2023-12-23T04:31:38.770Z,0.80
2023-12-23T04:34:08.650Z,1.30
2023-12-23T04:36:37.445Z,1.30
2023-12-23T04:39:07.411Z,1.30
2023-12-23T04:41:36.060Z,1.70
2023-12-23T04:44:05.377Z,1.17
2023-12-23T04:46:33.840Z,1.33
2023-12-23T04:49:02.292Z,1.67
2023-12-23T04:51:30.880Z,2.20
2023-12-23T04:53:59.581Z,1.83
2023-12-23T04:56:29.495Z,1.80
2023-12-23T04:58:58.148Z,1.57
2023-12-23T05:01:26.925Z,1.30
2023-12-23T05:03:56.356Z,1.60
2023-12-23T05:06:24.757Z,1.70
2023-12-23T05:08:53.324Z,1.90
2023-12-23T05:11:21.934Z,1.40
2023-12-23T05:13:51.830Z,1.73
2023-12-23T05:16:20.845Z,2.33
2023-12-23T05:18:49.628Z,1.23
2023-12-23T05:21:18.172Z,1.87
2023-12-23T05:23:46.754Z,1.40
2023-12-23T05:26:19.947Z,1.80
2023-12-23T05:28:48.651Z,1.30
2023-12-23T05:31:19.110Z,1.33
2023-12-23T05:33:48.357Z,1.40
2023-12-23T05:36:16.945Z,1.33
2023-12-23T05:38:45.518Z,1.10
2023-12-23T05:41:14.033Z,1.30
2023-12-23T05:43:42.493Z,1.23
2023-12-23T05:46:11.439Z,0.87
2023-12-23T05:48:41.272Z,1.50
2023-12-23T05:51:10.101Z,1.10
2023-12-23T05:53:38.487Z,0.83
2023-12-23T05:56:08.910Z,1.17
2023-12-23T05:58:37.577Z,0.80
2023-12-23T06:01:07.872Z,1.67
2023-12-23T06:03:36.527Z,1.17
2023-12-23T06:06:07.567Z,1.40
2023-12-23T06:08:36.068Z,0.97
2023-12-23T06:11:05.985Z,1.10
2023-12-23T06:13:34.818Z,1.13
2023-12-23T06:16:08.036Z,1.10
2023-12-23T06:18:36.649Z,1.30
2023-12-23T06:21:06.753Z,1.00
2023-12-23T06:23:35.204Z,1.30
2023-12-23T06:26:04.550Z,1.10
2023-12-23T06:28:33.105Z,1.17
2023-12-23T06:31:01.588Z,0.87
2023-12-23T06:33:30.124Z,0.90
2023-12-23T06:35:58.645Z,1.03
2023-12-23T06:38:28.462Z,0.90
2023-12-23T06:40:57.544Z,0.90
2023-12-23T06:43:45.267Z,0.77
2023-12-23T06:46:14.871Z,0.90
2023-12-23T06:48:43.503Z,0.50
2023-12-23T06:51:12.008Z,0.80
2023-12-23T06:53:41.982Z,1.07
2023-12-23T06:56:10.827Z,0.57
2023-12-23T06:58:39.299Z,0.93
2023-12-23T07:01:07.939Z,0.70
2023-12-23T07:03:36.490Z,0.73
2023-12-23T07:06:05.431Z,0.80
2023-12-23T07:08:35.360Z,1.07
2023-12-23T07:11:07.079Z,0.70
2023-12-23T07:13:35.914Z,1.03
2023-12-23T07:16:06.056Z,0.87
2023-12-23T07:18:34.588Z,0.93
2023-12-23T07:21:03.893Z,1.17
2023-12-23T07:23:32.389Z,1.03
2023-12-23T07:26:00.992Z,1.13
2023-12-23T07:28:31.269Z,0.60
2023-12-23T07:30:59.851Z,1.00
2023-12-23T07:33:28.456Z,0.80
2023-12-23T07:35:56.992Z,0.80
2023-12-23T07:38:25.863Z,1.30
2023-12-23T07:40:54.336Z,0.90
2023-12-23T07:43:23.716Z,1.00
2023-12-23T07:45:53.578Z,0.80
2023-12-23T07:48:22.646Z,0.70
2023-12-23T07:50:51.190Z,1.00
2023-12-23T07:53:19.776Z,0.70
2023-12-23T07:55:49.199Z,0.97
2023-12-23T07:58:17.749Z,0.80
2023-12-23T08:00:46.666Z,0.97
2023-12-23T08:03:16.605Z,1.13
2023-12-23T08:05:45.397Z,1.07
2023-12-23T08:08:14.868Z,1.10
2023-12-23T08:10:47.158Z,1.20
2023-12-23T08:13:15.606Z,1.13
2023-12-23T08:15:44.051Z,0.97
2023-12-23T08:18:13.381Z,1.07
2023-12-23T08:20:43.495Z,0.90
2023-12-23T08:23:11.939Z,0.80
2023-12-23T08:25:40.920Z,1.20
2023-12-23T08:28:09.562Z,1.37
2023-12-23T08:30:38.370Z,0.80
2023-12-23T08:33:07.349Z,0.87
2023-12-23T08:35:35.938Z,0.60
2023-12-23T08:38:06.328Z,1.20
2023-12-23T08:40:34.809Z,1.53
2023-12-23T08:43:03.438Z,0.70
2023-12-23T08:45:32.083Z,0.77
2023-12-23T08:48:00.645Z,1.03
2023-12-23T08:50:29.277Z,1.03
2023-12-23T08:52:58.145Z,0.97
2023-12-23T08:55:28.163Z,1.10
2023-12-23T08:57:57.227Z,0.70
2023-12-23T09:00:25.704Z,1.00
2023-12-23T09:02:54.274Z,1.13
2023-12-23T09:05:22.897Z,0.77
2023-12-23T09:07:51.695Z,1.00
2023-12-23T09:10:20.554Z,1.10
2023-12-23T09:12:50.308Z,0.67
2023-12-23T09:15:18.810Z,1.00
2023-12-23T09:17:47.410Z,0.70
2023-12-23T09:20:16.265Z,0.50
2023-12-23T09:22:46.005Z,0.50
2023-12-23T09:25:15.708Z,0.63
2023-12-23T09:27:44.167Z,0.83
2023-12-23T09:30:14.946Z,0.77
2023-12-23T09:32:43.540Z,0.63
2023-12-23T09:35:12.155Z,0.60
2023-12-23T09:37:40.659Z,0.60
2023-12-23T09:40:11.659Z,0.77
2023-12-23T09:42:40.384Z,1.27
2023-12-23T09:45:09.717Z,0.50
2023-12-23T09:47:39.689Z,0.70
2023-12-23T09:50:10.144Z,0.70
2023-12-23T09:52:38.864Z,1.10
2023-12-23T09:55:12.930Z,0.50
2023-12-23T09:57:42.029Z,0.67
2023-12-23T10:00:12.219Z,0.70
2023-12-23T10:02:43.826Z,0.40
2023-12-23T10:05:12.390Z,0.70
2023-12-23T10:07:40.876Z,0.60
2023-12-23T10:10:10.298Z,0.47
2023-12-23T10:12:38.760Z,0.70
2023-12-23T10:15:08.386Z,0.60
2023-12-23T10:17:38.406Z,1.50
2023-12-23T10:20:09.612Z,0.90
2023-12-23T10:22:37.944Z,1.00
2023-12-23T10:25:07.172Z,0.67
2023-12-23T10:27:35.842Z,0.60
2023-12-23T10:30:11.870Z,0.50
2023-12-23T10:32:41.604Z,0.60
2023-12-23T10:35:16.848Z,0.60
2023-12-23T10:37:45.530Z,0.70
2023-12-23T10:40:20.856Z,0.50
2023-12-23T10:42:52.414Z,0.70
2023-12-23T10:45:23.060Z,0.50
2023-12-23T10:47:53.697Z,0.60
2023-12-23T10:50:25.543Z,0.50
2023-12-23T10:52:55.881Z,0.70
2023-12-23T10:55:27.541Z,0.60
2023-12-23T10:57:58.795Z,0.60
2023-12-23T11:00:28.015Z,0.50
2023-12-23T11:03:00.612Z,0.40
2023-12-23T11:05:31.378Z,0.87
2023-12-23T11:08:07.435Z,0.77
2023-12-23T11:10:44.390Z,0.47
2023-12-23T11:13:14.038Z,0.60
2023-12-23T11:15:43.683Z,0.73
2023-12-23T11:18:12.736Z,0.87
2023-12-23T11:20:51.408Z,0.93
2023-12-23T11:23:35.648Z,0.70
2023-12-23T11:26:06.207Z,1.00
2023-12-23T11:28:38.715Z,0.80
2023-12-23T11:31:07.590Z,0.97
2023-12-23T11:33:38.015Z,1.07
2023-12-23T11:36:09.456Z,0.80
2023-12-23T11:38:49.790Z,0.40
2023-12-23T11:41:19.007Z,0.80
2023-12-23T11:43:49.132Z,0.73
2023-12-23T11:46:19.724Z,0.80
2023-12-23T11:48:48.069Z,1.20
2023-12-23T11:51:17.908Z,0.83
2023-12-23T11:53:46.508Z,0.70
2023-12-23T11:56:16.816Z,0.83
2023-12-23T11:58:45.369Z,0.70
2023-12-23T12:01:13.851Z,2.30
2023-12-23T12:03:42.392Z,0.60
2023-12-23T12:06:11.189Z,0.83
2023-12-23T12:08:41.110Z,0.60
2023-12-23T12:11:10.069Z,0.70
2023-12-23T12:13:38.928Z,0.87
2023-12-23T12:16:08.457Z,0.87
2023-12-23T12:18:37.163Z,1.50
2023-12-23T12:21:05.855Z,1.33
2023-12-23T12:23:34.312Z,1.50
2023-12-23T12:26:04.609Z,1.20
2023-12-23T12:28:33.867Z,1.00
2023-12-23T12:31:12.985Z,0.83
2023-12-23T12:33:45.132Z,1.10
2023-12-23T12:36:17.470Z,1.50
2023-12-23T12:38:46.905Z,1.03
2023-12-23T12:41:17.751Z,1.10
2023-12-23T12:43:46.943Z,1.73
2023-12-23T12:46:17.183Z,1.40
2023-12-23T12:48:47.408Z,1.10
2023-12-23T12:51:18.592Z,1.30
2023-12-23T12:53:48.435Z,1.70
2023-12-23T12:56:22.981Z,1.33
2023-12-23T12:58:52.775Z,1.10
2023-12-23T13:01:22.099Z,1.33
2023-12-23T13:03:50.780Z,1.80
2023-12-23T13:06:19.280Z,1.40
2023-12-23T13:08:47.884Z,1.10
2023-12-23T13:11:17.717Z,0.97
2023-12-23T13:13:46.631Z,1.30
2023-12-23T13:16:15.473Z,1.43
2023-12-23T13:18:52.807Z,0.77
2023-12-23T13:21:25.658Z,1.13
2023-12-23T13:23:54.896Z,1.37
2023-12-23T13:26:24.966Z,1.00
2023-12-23T13:28:53.623Z,0.90
2023-12-23T13:31:22.543Z,1.03
2023-12-23T13:33:50.006Z,1.00
2023-12-23T13:36:18.593Z,1.17
2023-12-23T13:38:47.325Z,1.00
2023-12-23T13:41:20.217Z,1.30
2023-12-23T13:43:50.189Z,1.57
2023-12-23T13:46:18.586Z,1.10
2023-12-23T13:48:47.243Z,0.93
2023-12-23T13:51:15.969Z,0.90
2023-12-23T13:53:45.299Z,0.83
2023-12-23T13:56:13.761Z,1.10
2023-12-23T13:58:42.148Z,0.80
2023-12-23T14:01:12.193Z,1.07
2023-12-23T14:03:40.769Z,1.30
2023-12-23T14:06:09.421Z,2.10
2023-12-23T14:08:37.944Z,2.33
2023-12-23T14:11:06.520Z,1.43
2023-12-23T14:13:34.968Z,4.10
2023-12-23T14:16:03.374Z,3.67
2023-12-23T14:18:33.448Z,3.73
2023-12-23T14:21:03.217Z,4.50
2023-12-23T14:23:31.809Z,5.43
2023-12-23T14:26:00.535Z,3.40
2023-12-23T14:28:28.980Z,1.73
2023-12-23T14:30:57.572Z,2.13
2023-12-23T14:33:26.556Z,1.57
2023-12-23T14:35:57.070Z,1.77
2023-12-23T14:38:25.647Z,1.73
2023-12-23T14:40:54.036Z,1.37
2023-12-23T14:43:22.964Z,1.50
2023-12-23T14:45:51.343Z,2.03
2023-12-23T14:48:19.893Z,1.80
2023-12-23T14:50:48.347Z,1.60
2023-12-23T14:53:18.582Z,1.53
2023-12-23T14:55:47.009Z,1.20
2023-12-23T14:58:16.084Z,1.17
2023-12-23T15:00:44.597Z,2.27
2023-12-23T15:03:13.048Z,1.10
2023-12-23T15:05:41.714Z,0.97
2023-12-23T15:08:10.235Z,1.00
2023-12-23T15:10:40.516Z,1.50
2023-12-23T15:13:09.072Z,1.30
2023-12-23T15:15:38.171Z,1.20
2023-12-23T15:18:10.447Z,1.40
2023-12-23T15:20:38.952Z,2.27
2023-12-23T15:23:07.716Z,1.10
2023-12-23T15:25:36.286Z,1.20
2023-12-23T15:28:06.864Z,1.90
2023-12-23T15:30:35.881Z,1.70
2023-12-23T15:33:04.640Z,1.10
2023-12-23T15:35:33.261Z,1.50
2023-12-23T15:38:01.838Z,1.20
2023-12-23T15:40:30.336Z,1.70
2023-12-23T15:42:58.661Z,0.80
2023-12-23T15:45:28.376Z,1.20
2023-12-23T15:47:56.867Z,1.70
2023-12-23T15:50:25.520Z,0.93
2023-12-23T15:52:54.189Z,1.60
2023-12-23T15:55:23.023Z,2.40
2023-12-23T15:57:51.419Z,0.87
2023-12-23T16:00:20.697Z,0.90
2023-12-23T16:02:52.096Z,1.27
2023-12-23T16:05:21.077Z,1.57
2023-12-23T16:07:50.019Z,1.00
2023-12-23T16:10:18.750Z,1.33
2023-12-23T16:12:47.333Z,1.43
2023-12-23T16:15:16.484Z,1.30
2023-12-23T16:17:45.546Z,0.83
2023-12-23T16:20:15.841Z,0.80
2023-12-23T16:22:44.880Z,1.27
2023-12-23T16:25:13.409Z,0.90
2023-12-23T16:27:42.098Z,1.27
2023-12-23T16:30:12.070Z,2.43
2023-12-23T16:32:40.768Z,1.40
2023-12-23T16:35:10.622Z,4.53
2023-12-23T16:37:41.809Z,2.10
2023-12-23T16:40:11.344Z,2.73
2023-12-23T16:42:39.765Z,1.20
2023-12-23T16:45:15.752Z,1.47
2023-12-23T16:47:44.495Z,2.70
2023-12-23T16:50:15.090Z,1.80
2023-12-23T16:52:45.255Z,2.93
2023-12-23T16:55:13.945Z,3.20
2023-12-23T16:57:42.425Z,3.20
2023-12-23T17:00:12.168Z,1.97
2023-12-23T17:02:40.679Z,3.20
2023-12-23T17:05:10.187Z,1.90
2023-12-23T17:07:38.775Z,4.30
2023-12-23T17:10:09.727Z,5.67
2023-12-23T17:12:38.300Z,2.27
2023-12-23T17:15:08.695Z,1.57
2023-12-23T17:17:38.606Z,2.00
2023-12-23T17:20:09.159Z,3.83
2023-12-23T17:22:37.811Z,1.53
2023-12-23T17:25:08.540Z,2.03
2023-12-23T17:27:36.936Z,1.63
2023-12-23T17:30:07.198Z,3.07
2023-12-23T17:32:35.789Z,2.50
2023-12-23T17:35:10.569Z,2.67
2023-12-23T17:37:38.951Z,5.80
2023-12-23T17:40:10.704Z,2.70
2023-12-23T17:42:39.138Z,2.33
2023-12-23T17:45:08.713Z,1.47
2023-12-23T17:47:37.311Z,1.80
2023-12-23T17:50:06.861Z,1.73
2023-12-23T17:52:35.442Z,2.27
2023-12-23T17:55:03.932Z,2.30
2023-12-23T17:57:33.830Z,2.97
2023-12-23T18:00:02.346Z,2.40
2023-12-23T18:02:33.071Z,2.30
2023-12-23T18:05:02.568Z,3.27
2023-12-23T18:07:31.256Z,1.90
2023-12-23T18:09:59.804Z,2.60
2023-12-23T18:12:28.291Z,3.53
2023-12-23T18:14:58.506Z,1.77
2023-12-23T18:17:28.465Z,2.07
2023-12-23T18:19:56.976Z,1.73
2023-12-23T18:22:27.205Z,1.33
2023-12-23T18:24:55.653Z,1.20
2023-12-23T18:27:24.001Z,1.07
2023-12-23T18:29:52.910Z,1.60
2023-12-23T18:32:22.999Z,1.53
2023-12-23T18:34:51.672Z,1.40
2023-12-23T18:37:20.225Z,3.20
2023-12-23T18:39:48.572Z,1.60
2023-12-23T18:42:17.050Z,1.17
2023-12-23T18:44:45.657Z,1.67
2023-12-23T18:47:14.058Z,1.43
2023-12-23T18:49:43.839Z,1.50
2023-12-23T18:52:12.206Z,0.77
2023-12-23T18:54:41.496Z,4.87
2023-12-23T18:57:09.936Z,1.60
2023-12-23T18:59:38.412Z,2.77
2023-12-23T19:02:09.582Z,1.03
2023-12-23T19:04:38.743Z,1.90
2023-12-23T19:07:09.987Z,1.10
2023-12-23T19:09:38.783Z,0.93
2023-12-23T19:12:07.432Z,2.30
2023-12-23T19:14:35.858Z,1.40
2023-12-23T19:17:04.692Z,0.90
2023-12-23T19:19:33.192Z,0.97
2023-12-23T19:22:01.636Z,0.97
2023-12-23T19:24:31.453Z,1.10
2023-12-23T19:27:00.301Z,1.10
2023-12-23T19:29:29.010Z,1.30
2023-12-23T19:31:57.472Z,1.00
2023-12-23T19:34:25.831Z,1.33
2023-12-23T19:36:54.381Z,0.97
2023-12-23T19:39:23.911Z,1.00
2023-12-23T19:41:53.719Z,1.20
2023-12-23T19:44:25.429Z,1.47
2023-12-23T19:46:53.965Z,0.97
2023-12-23T19:49:22.512Z,1.30
2023-12-23T19:51:49.933Z,1.10
2023-12-23T19:54:18.367Z,1.10
2023-12-23T19:56:46.838Z,1.00
2023-12-23T19:59:16.697Z,1.20
2023-12-23T20:01:48.592Z,0.90
2023-12-23T20:04:17.266Z,1.37
2023-12-23T20:06:45.795Z,1.20
2023-12-23T20:09:16.243Z,1.13
2023-12-23T20:11:45.592Z,0.80
2023-12-23T20:14:15.036Z,1.40
2023-12-23T20:16:45.068Z,0.97
2023-12-23T20:19:17.390Z,1.33
2023-12-23T20:21:46.081Z,1.03
2023-12-23T20:24:18.257Z,1.30
2023-12-23T20:26:46.757Z,1.00
2023-12-23T20:29:15.653Z,1.10
2023-12-23T20:31:45.445Z,1.10
2023-12-23T20:34:13.916Z,1.07
2023-12-23T20:36:44.695Z,1.20
2023-12-23T20:39:25.825Z,1.17
2023-12-23T20:41:56.874Z,1.10
2023-12-23T20:44:26.052Z,1.40
2023-12-23T20:46:58.295Z,1.60
2023-12-23T20:49:26.995Z,0.90
2023-12-23T20:51:55.405Z,1.00
2023-12-23T20:54:24.266Z,0.80
2023-12-23T20:56:54.078Z,0.83
2023-12-23T20:59:22.549Z,1.17
2023-12-23T21:01:51.672Z,0.80
2023-12-23T21:04:21.502Z,1.20
2023-12-23T21:06:51.087Z,0.90
2023-12-23T21:09:19.576Z,1.00
2023-12-23T21:11:48.040Z,0.77
2023-12-23T21:14:16.861Z,1.27
2023-12-23T21:16:45.275Z,1.30
2023-12-23T21:19:13.706Z,1.00
2023-12-23T21:21:43.508Z,0.90
2023-12-23T21:24:11.944Z,1.10
2023-12-23T21:26:40.438Z,1.30
2023-12-23T21:29:08.989Z,0.60
2023-12-23T21:31:37.412Z,0.70
2023-12-23T21:34:05.878Z,1.10
2023-12-23T21:36:34.737Z,1.03
2023-12-23T21:39:04.796Z,1.37
2023-12-23T21:41:33.340Z,1.10
2023-12-23T21:44:02.111Z,1.10
2023-12-23T21:46:30.547Z,1.50
2023-12-23T21:49:00.363Z,1.13
2023-12-23T21:51:29.043Z,0.90
2023-12-23T21:53:57.427Z,1.10
2023-12-23T21:56:27.213Z,0.87
2023-12-23T21:58:55.697Z,0.97
2023-12-23T22:01:24.049Z,1.53
2023-12-23T22:03:52.626Z,0.93
2023-12-23T22:06:21.526Z,1.00
2023-12-23T22:08:51.746Z,1.23
2023-12-23T22:11:20.167Z,0.73
2023-12-23T22:13:53.087Z,0.80
2023-12-23T22:16:21.480Z,0.67
2023-12-23T22:18:50.453Z,0.97
2023-12-23T22:21:19.044Z,1.10
2023-12-23T22:23:47.504Z,1.00
2023-12-23T22:26:16.145Z,1.27
2023-12-23T22:28:44.626Z,0.80
2023-12-23T22:31:14.471Z,1.13
2023-12-23T22:33:44.780Z,1.20
2023-12-23T22:36:13.359Z,0.63
2023-12-23T22:38:41.986Z,0.80
2023-12-23T22:41:11.588Z,1.00
2023-12-23T22:43:40.084Z,0.80
2023-12-23T22:46:08.586Z,0.70
2023-12-23T22:48:38.359Z,0.57
2023-12-23T22:51:08.363Z,0.77
2023-12-23T22:53:37.024Z,0.70
2023-12-23T22:56:06.834Z,0.53
2023-12-23T22:58:35.448Z,0.70
2023-12-23T23:01:03.993Z,0.77
2023-12-23T23:03:32.922Z,0.40
2023-12-23T23:06:02.968Z,0.80
2023-12-23T23:08:31.584Z,0.50
2023-12-23T23:11:00.042Z,0.70
2023-12-23T23:13:28.472Z,0.80
2023-12-23T23:15:56.850Z,1.00
2023-12-23T23:18:25.416Z,0.80
2023-12-23T23:20:53.922Z,0.67
2023-12-23T23:23:23.912Z,1.00
2023-12-23T23:25:52.331Z,0.70
2023-12-23T23:28:20.819Z,0.50
2023-12-23T23:30:50.472Z,1.00
2023-12-23T23:33:19.176Z,0.90
2023-12-23T23:35:47.664Z,0.60
2023-12-23T23:38:16.273Z,0.83
2023-12-23T23:40:49.589Z,0.77
2023-12-23T23:43:18.109Z,0.77
2023-12-23T23:45:46.559Z,0.70
2023-12-23T23:48:15.457Z,1.27
2023-12-23T23:50:44.102Z,0.60
2023-12-23T23:53:13.684Z,0.73
2023-12-23T23:55:42.704Z,0.70
2023-12-23T23:58:12.624Z,1.10
